sensor_id;sensor_type;location;lat;lon;timestamp;P1;durP1;ratioP1;P2;durP2;ratioP2
47021;SDS011;32779;52.264;6.154;2022-09-09T00:03:43;6.00;;;2.78;;
47021;SDS011;32779;52.264;6.154;2022-09-09T00:06:25;6.07;;;3.50;;
47021;SDS011;32779;52.264;6.154;2022-09-09T00:11:37;4.93;;;3.00;;
47021;SDS011;32779;52.264;6.154;2022-09-09T00:14:10;4.43;;;2.75;;
47021;SDS011;32779;52.264;6.154;2022-09-09T00:16:59;4.35;;;2.88;;
47021;SDS011;32779;52.264;6.154;2022-09-09T00:24:42;5.07;;;2.60;;
47021;SDS011;32779;52.264;6.154;2022-09-09T00:32:45;4.68;;;2.42;;
47021;SDS011;32779;52.264;6.154;2022-09-09T00:35:14;3.28;;;1.90;;
47021;SDS011;32779;52.264;6.154;2022-09-09T00:37:43;3.00;;;1.70;;
47021;SDS011;32779;52.264;6.154;2022-09-09T00:40:34;2.67;;;1.77;;
47021;SDS011;32779;52.264;6.154;2022-09-09T00:51:22;3.92;;;1.45;;
47021;SDS011;32779;52.264;6.154;2022-09-09T00:54:15;8.20;;;1.70;;
47021;SDS011;32779;52.264;6.154;2022-09-09T00:56:56;6.15;;;1.67;;
47021;SDS011;32779;52.264;6.154;2022-09-09T01:05:27;3.28;;;2.00;;
47021;SDS011;32779;52.264;6.154;2022-09-09T01:08:11;2.35;;;1.80;;
47021;SDS011;32779;52.264;6.154;2022-09-09T01:10:49;3.35;;;2.33;;
47021;SDS011;32779;52.264;6.154;2022-09-09T01:13:31;7.82;;;2.38;;
47021;SDS011;32779;52.264;6.154;2022-09-09T01:15:59;2.78;;;2.53;;
47021;SDS011;32779;52.264;6.154;2022-09-09T01:18:33;6.15;;;2.70;;
47021;SDS011;32779;52.264;6.154;2022-09-09T01:23:54;8.57;;;3.22;;
47021;SDS011;32779;52.264;6.154;2022-09-09T01:26:37;7.07;;;3.60;;
47021;SDS011;32779;52.264;6.154;2022-09-09T01:29:10;6.97;;;3.60;;
47021;SDS011;32779;52.264;6.154;2022-09-09T01:31:42;5.10;;;3.58;;
47021;SDS011;32779;52.264;6.154;2022-09-09T01:34:19;7.28;;;4.22;;
47021;SDS011;32779;52.264;6.154;2022-09-09T01:36:49;4.50;;;3.25;;
47021;SDS011;32779;52.264;6.154;2022-09-09T01:39:24;5.65;;;3.90;;
47021;SDS011;32779;52.264;6.154;2022-09-09T01:41:50;7.57;;;4.30;;
47021;SDS011;32779;52.264;6.154;2022-09-09T01:46:43;7.32;;;4.43;;
47021;SDS011;32779;52.264;6.154;2022-09-09T01:51:35;6.57;;;4.50;;
47021;SDS011;32779;52.264;6.154;2022-09-09T01:54:02;5.88;;;4.78;;
47021;SDS011;32779;52.264;6.154;2022-09-09T01:59:23;6.07;;;5.47;;
47021;SDS011;32779;52.264;6.154;2022-09-09T02:04:41;10.93;;;6.88;;
47021;SDS011;32779;52.264;6.154;2022-09-09T02:07:21;9.43;;;6.57;;
47021;SDS011;32779;52.264;6.154;2022-09-09T02:10:28;8.23;;;6.10;;
47021;SDS011;32779;52.264;6.154;2022-09-09T02:13:00;8.73;;;6.63;;
47021;SDS011;32779;52.264;6.154;2022-09-09T02:18:24;6.90;;;6.20;;
47021;SDS011;32779;52.264;6.154;2022-09-09T02:20:57;11.40;;;6.18;;
47021;SDS011;32779;52.264;6.154;2022-09-09T02:23:24;7.15;;;5.75;;
47021;SDS011;32779;52.264;6.154;2022-09-09T02:25:50;8.13;;;6.00;;
47021;SDS011;32779;52.264;6.154;2022-09-09T02:28:18;6.53;;;4.90;;
47021;SDS011;32779;52.264;6.154;2022-09-09T02:30:46;6.65;;;5.20;;
47021;SDS011;32779;52.264;6.154;2022-09-09T02:33:15;7.95;;;5.10;;
47021;SDS011;32779;52.264;6.154;2022-09-09T02:35:41;6.47;;;5.32;;
47021;SDS011;32779;52.264;6.154;2022-09-09T02:38:10;6.75;;;5.30;;
47021;SDS011;32779;52.264;6.154;2022-09-09T02:40:38;7.10;;;5.53;;
47021;SDS011;32779;52.264;6.154;2022-09-09T02:43:04;8.75;;;5.45;;
47021;SDS011;32779;52.264;6.154;2022-09-09T02:45:33;7.70;;;5.57;;
47021;SDS011;32779;52.264;6.154;2022-09-09T02:48:11;7.13;;;5.28;;
47021;SDS011;32779;52.264;6.154;2022-09-09T02:50:41;7.00;;;5.25;;
47021;SDS011;32779;52.264;6.154;2022-09-09T02:53:43;6.13;;;4.50;;
47021;SDS011;32779;52.264;6.154;2022-09-09T02:56:17;8.73;;;4.82;;
47021;SDS011;32779;52.264;6.154;2022-09-09T02:58:46;8.13;;;4.70;;
47021;SDS011;32779;52.264;6.154;2022-09-09T03:01:13;7.10;;;4.50;;
47021;SDS011;32779;52.264;6.154;2022-09-09T03:08:31;7.43;;;3.85;;
47021;SDS011;32779;52.264;6.154;2022-09-09T03:11:00;8.18;;;3.92;;
47021;SDS011;32779;52.264;6.154;2022-09-09T03:13:28;6.18;;;3.35;;
47021;SDS011;32779;52.264;6.154;2022-09-09T03:15:54;6.80;;;3.45;;
47021;SDS011;32779;52.264;6.154;2022-09-09T03:20:45;5.25;;;3.40;;
47021;SDS011;32779;52.264;6.154;2022-09-09T03:23:13;4.60;;;3.25;;
47021;SDS011;32779;52.264;6.154;2022-09-09T03:28:11;7.82;;;3.20;;
47021;SDS011;32779;52.264;6.154;2022-09-09T03:30:36;4.97;;;3.28;;
47021;SDS011;32779;52.264;6.154;2022-09-09T03:35:28;4.85;;;3.38;;
47021;SDS011;32779;52.264;6.154;2022-09-09T03:37:54;9.75;;;3.40;;
47021;SDS011;32779;52.264;6.154;2022-09-09T03:42:46;4.35;;;3.67;;
47021;SDS011;32779;52.264;6.154;2022-09-09T03:45:13;6.65;;;4.05;;
47021;SDS011;32779;52.264;6.154;2022-09-09T03:47:38;4.30;;;3.88;;
47021;SDS011;32779;52.264;6.154;2022-09-09T03:52:34;5.30;;;3.92;;
47021;SDS011;32779;52.264;6.154;2022-09-09T03:55:00;5.40;;;3.92;;
47021;SDS011;32779;52.264;6.154;2022-09-09T03:57:26;4.32;;;3.78;;
47021;SDS011;32779;52.264;6.154;2022-09-09T03:59:52;5.95;;;3.75;;
47021;SDS011;32779;52.264;6.154;2022-09-09T04:04:43;7.38;;;3.72;;
47021;SDS011;32779;52.264;6.154;2022-09-09T04:07:08;7.50;;;4.10;;
47021;SDS011;32779;52.264;6.154;2022-09-09T04:09:34;8.75;;;4.10;;
47021;SDS011;32779;52.264;6.154;2022-09-09T04:14:25;5.85;;;3.97;;
47021;SDS011;32779;52.264;6.154;2022-09-09T04:16:53;4.13;;;3.72;;
47021;SDS011;32779;52.264;6.154;2022-09-09T04:19:20;5.03;;;3.75;;
47021;SDS011;32779;52.264;6.154;2022-09-09T04:21:46;4.70;;;4.30;;
47021;SDS011;32779;52.264;6.154;2022-09-09T04:24:13;4.93;;;4.25;;
47021;SDS011;32779;52.264;6.154;2022-09-09T04:26:41;8.70;;;4.43;;
47021;SDS011;32779;52.264;6.154;2022-09-09T04:29:06;5.40;;;4.07;;
47021;SDS011;32779;52.264;6.154;2022-09-09T04:31:32;5.88;;;4.03;;
47021;SDS011;32779;52.264;6.154;2022-09-09T04:36:27;6.95;;;4.15;;
47021;SDS011;32779;52.264;6.154;2022-09-09T04:38:52;6.88;;;4.60;;
47021;SDS011;32779;52.264;6.154;2022-09-09T04:43:43;9.75;;;4.57;;
47021;SDS011;32779;52.264;6.154;2022-09-09T04:46:09;5.50;;;4.70;;
47021;SDS011;32779;52.264;6.154;2022-09-09T04:51:02;8.70;;;4.97;;
47021;SDS011;32779;52.264;6.154;2022-09-09T04:53:36;7.95;;;5.13;;
47021;SDS011;32779;52.264;6.154;2022-09-09T04:58:34;7.15;;;5.68;;
47021;SDS011;32779;52.264;6.154;2022-09-09T05:03:33;6.72;;;5.57;;
47021;SDS011;32779;52.264;6.154;2022-09-09T05:06:06;8.23;;;5.63;;
47021;SDS011;32779;52.264;6.154;2022-09-09T05:08:35;9.50;;;5.70;;
47021;SDS011;32779;52.264;6.154;2022-09-09T05:11:12;7.22;;;5.40;;
47021;SDS011;32779;52.264;6.154;2022-09-09T05:13:39;9.25;;;5.57;;
47021;SDS011;32779;52.264;6.154;2022-09-09T05:16:05;8.88;;;5.53;;
47021;SDS011;32779;52.264;6.154;2022-09-09T05:18:30;16.13;;;5.65;;
47021;SDS011;32779;52.264;6.154;2022-09-09T05:23:25;8.23;;;5.43;;
47021;SDS011;32779;52.264;6.154;2022-09-09T05:25:55;8.10;;;5.57;;
47021;SDS011;32779;52.264;6.154;2022-09-09T05:28:21;12.48;;;5.97;;
47021;SDS011;32779;52.264;6.154;2022-09-09T05:33:20;9.38;;;5.68;;
47021;SDS011;32779;52.264;6.154;2022-09-09T05:35:46;9.02;;;5.68;;
47021;SDS011;32779;52.264;6.154;2022-09-09T05:40:37;9.75;;;5.40;;
47021;SDS011;32779;52.264;6.154;2022-09-09T05:45:28;11.45;;;5.80;;
47021;SDS011;32779;52.264;6.154;2022-09-09T05:50:19;9.60;;;5.53;;
47021;SDS011;32779;52.264;6.154;2022-09-09T05:52:45;11.75;;;5.60;;
47021;SDS011;32779;52.264;6.154;2022-09-09T05:57:36;8.45;;;5.47;;
47021;SDS011;32779;52.264;6.154;2022-09-09T06:02:27;13.55;;;5.63;;
47021;SDS011;32779;52.264;6.154;2022-09-09T06:07:19;10.02;;;5.85;;
47021;SDS011;32779;52.264;6.154;2022-09-09T06:09:45;7.65;;;5.13;;
47021;SDS011;32779;52.264;6.154;2022-09-09T06:14:36;11.38;;;5.68;;
47021;SDS011;32779;52.264;6.154;2022-09-09T06:17:01;8.70;;;5.07;;
47021;SDS011;32779;52.264;6.154;2022-09-09T06:21:53;9.80;;;5.28;;
47021;SDS011;32779;52.264;6.154;2022-09-09T06:26:44;12.15;;;5.18;;
47021;SDS011;32779;52.264;6.154;2022-09-09T06:29:10;15.93;;;5.15;;
47021;SDS011;32779;52.264;6.154;2022-09-09T06:34:03;13.50;;;5.65;;
47021;SDS011;32779;52.264;6.154;2022-09-09T06:36:31;14.98;;;6.65;;
47021;SDS011;32779;52.264;6.154;2022-09-09T06:38:58;13.85;;;5.07;;
47021;SDS011;32779;52.264;6.154;2022-09-09T06:41:26;9.95;;;5.40;;
47021;SDS011;32779;52.264;6.154;2022-09-09T06:43:53;12.52;;;5.32;;
47021;SDS011;32779;52.264;6.154;2022-09-09T06:46:24;10.15;;;5.03;;
47021;SDS011;32779;52.264;6.154;2022-09-09T06:48:52;14.45;;;4.97;;
47021;SDS011;32779;52.264;6.154;2022-09-09T06:51:20;9.43;;;5.25;;
47021;SDS011;32779;52.264;6.154;2022-09-09T06:53:47;11.85;;;5.28;;
47021;SDS011;32779;52.264;6.154;2022-09-09T06:56:20;12.50;;;4.50;;
47021;SDS011;32779;52.264;6.154;2022-09-09T06:58:50;18.00;;;5.05;;
47021;SDS011;32779;52.264;6.154;2022-09-09T07:01:18;11.38;;;4.45;;
47021;SDS011;32779;52.264;6.154;2022-09-09T07:03:46;7.60;;;4.18;;
47021;SDS011;32779;52.264;6.154;2022-09-09T07:06:17;9.02;;;4.03;;
47021;SDS011;32779;52.264;6.154;2022-09-09T07:08:48;9.43;;;4.50;;
47021;SDS011;32779;52.264;6.154;2022-09-09T07:11:15;10.05;;;4.30;;
47021;SDS011;32779;52.264;6.154;2022-09-09T07:16:08;8.18;;;4.10;;
47021;SDS011;32779;52.264;6.154;2022-09-09T07:18:39;9.18;;;3.92;;
47021;SDS011;32779;52.264;6.154;2022-09-09T07:21:05;7.93;;;3.95;;
47021;SDS011;32779;52.264;6.154;2022-09-09T07:23:31;8.43;;;3.92;;
47021;SDS011;32779;52.264;6.154;2022-09-09T07:28:24;8.60;;;4.15;;
47021;SDS011;32779;52.264;6.154;2022-09-09T07:30:57;8.48;;;3.97;;
47021;SDS011;32779;52.264;6.154;2022-09-09T07:33:27;13.23;;;3.83;;
47021;SDS011;32779;52.264;6.154;2022-09-09T07:36:01;12.18;;;3.83;;
47021;SDS011;32779;52.264;6.154;2022-09-09T07:38:32;13.10;;;3.85;;
47021;SDS011;32779;52.264;6.154;2022-09-09T07:41:05;10.60;;;3.78;;
47021;SDS011;32779;52.264;6.154;2022-09-09T07:43:36;7.43;;;4.03;;
47021;SDS011;32779;52.264;6.154;2022-09-09T07:46:05;11.00;;;4.25;;
47021;SDS011;32779;52.264;6.154;2022-09-09T07:48:31;16.00;;;3.50;;
47021;SDS011;32779;52.264;6.154;2022-09-09T07:53:31;12.00;;;3.15;;
47021;SDS011;32779;52.264;6.154;2022-09-09T07:58:27;10.63;;;3.00;;
47021;SDS011;32779;52.264;6.154;2022-09-09T08:03:18;10.13;;;2.70;;
47021;SDS011;32779;52.264;6.154;2022-09-09T08:05:45;12.45;;;3.03;;
47021;SDS011;32779;52.264;6.154;2022-09-09T08:10:36;12.02;;;3.03;;
47021;SDS011;32779;52.264;6.154;2022-09-09T08:13:02;12.00;;;2.35;;
47021;SDS011;32779;52.264;6.154;2022-09-09T08:20:21;12.80;;;3.10;;
47021;SDS011;32779;52.264;6.154;2022-09-09T08:22:48;10.75;;;3.08;;
47021;SDS011;32779;52.264;6.154;2022-09-09T08:25:15;10.73;;;2.65;;
47021;SDS011;32779;52.264;6.154;2022-09-09T08:30:06;10.38;;;2.80;;
47021;SDS011;32779;52.264;6.154;2022-09-09T08:32:32;12.10;;;2.65;;
47021;SDS011;32779;52.264;6.154;2022-09-09T08:37:23;8.32;;;2.60;;
47021;SDS011;32779;52.264;6.154;2022-09-09T08:42:21;9.35;;;2.60;;
47021;SDS011;32779;52.264;6.154;2022-09-09T08:45:02;6.95;;;2.95;;
47021;SDS011;32779;52.264;6.154;2022-09-09T08:50:19;9.75;;;2.35;;
47021;SDS011;32779;52.264;6.154;2022-09-09T08:57:58;9.23;;;2.33;;
47021;SDS011;32779;52.264;6.154;2022-09-09T09:00:40;7.32;;;2.20;;
47021;SDS011;32779;52.264;6.154;2022-09-09T09:03:30;11.23;;;2.30;;
47021;SDS011;32779;52.264;6.154;2022-09-09T09:06:13;10.70;;;2.30;;
47021;SDS011;32779;52.264;6.154;2022-09-09T09:11:39;8.13;;;2.40;;
47021;SDS011;32779;52.264;6.154;2022-09-09T09:14:11;10.43;;;2.53;;
47021;SDS011;32779;52.264;6.154;2022-09-09T09:17:04;12.40;;;1.88;;
47021;SDS011;32779;52.264;6.154;2022-09-09T09:19:34;7.70;;;2.10;;
47021;SDS011;32779;52.264;6.154;2022-09-09T09:30:05;12.70;;;2.50;;
47021;SDS011;32779;52.264;6.154;2022-09-09T09:32:44;9.63;;;2.20;;
47021;SDS011;32779;52.264;6.154;2022-09-09T09:35:18;9.25;;;1.80;;
47021;SDS011;32779;52.264;6.154;2022-09-09T09:40:11;11.77;;;2.13;;
47021;SDS011;32779;52.264;6.154;2022-09-09T09:42:47;8.10;;;2.10;;
47021;SDS011;32779;52.264;6.154;2022-09-09T09:45:25;19.80;;;6.45;;
47021;SDS011;32779;52.264;6.154;2022-09-09T09:48:10;9.13;;;2.47;;
47021;SDS011;32779;52.264;6.154;2022-09-09T09:50:46;9.02;;;2.50;;
47021;SDS011;32779;52.264;6.154;2022-09-09T09:53:26;13.23;;;2.03;;
47021;SDS011;32779;52.264;6.154;2022-09-09T09:56:08;8.27;;;2.13;;
47021;SDS011;32779;52.264;6.154;2022-09-09T09:58:48;6.78;;;2.13;;
47021;SDS011;32779;52.264;6.154;2022-09-09T10:06:45;7.03;;;2.00;;
47021;SDS011;32779;52.264;6.154;2022-09-09T10:17:32;8.07;;;1.70;;
47021;SDS011;32779;52.264;6.154;2022-09-09T10:20:28;7.22;;;2.15;;
47021;SDS011;32779;52.264;6.154;2022-09-09T10:23:17;11.43;;;2.80;;
47021;SDS011;32779;52.264;6.154;2022-09-09T10:36:41;12.77;;;2.55;;
47021;SDS011;32779;52.264;6.154;2022-09-09T10:47:17;6.95;;;2.17;;
47021;SDS011;32779;52.264;6.154;2022-09-09T10:50:02;11.40;;;2.40;;
47021;SDS011;32779;52.264;6.154;2022-09-09T10:52:52;7.10;;;1.60;;
47021;SDS011;32779;52.264;6.154;2022-09-09T10:55:35;8.43;;;1.48;;
47021;SDS011;32779;52.264;6.154;2022-09-09T10:58:05;10.43;;;2.08;;
47021;SDS011;32779;52.264;6.154;2022-09-09T11:00:41;4.90;;;1.65;;
47021;SDS011;32779;52.264;6.154;2022-09-09T11:03:21;11.05;;;1.83;;
47021;SDS011;32779;52.264;6.154;2022-09-09T11:05:50;6.57;;;1.90;;
47021;SDS011;32779;52.264;6.154;2022-09-09T11:08:20;7.10;;;2.05;;
47021;SDS011;32779;52.264;6.154;2022-09-09T11:11:04;11.23;;;1.80;;
47021;SDS011;32779;52.264;6.154;2022-09-09T11:16:15;5.07;;;1.48;;
47021;SDS011;32779;52.264;6.154;2022-09-09T11:18:51;10.18;;;1.95;;
47021;SDS011;32779;52.264;6.154;2022-09-09T11:21:47;7.47;;;1.50;;
47021;SDS011;32779;52.264;6.154;2022-09-09T11:24:19;6.57;;;1.67;;
47021;SDS011;32779;52.264;6.154;2022-09-09T11:27:13;8.50;;;1.98;;
47021;SDS011;32779;52.264;6.154;2022-09-09T11:32:47;7.43;;;1.50;;
47021;SDS011;32779;52.264;6.154;2022-09-09T11:40:30;7.88;;;1.58;;
47021;SDS011;32779;52.264;6.154;2022-09-09T11:43:05;8.52;;;1.70;;
47021;SDS011;32779;52.264;6.154;2022-09-09T11:45:37;10.50;;;1.83;;
47021;SDS011;32779;52.264;6.154;2022-09-09T11:51:08;7.07;;;1.60;;
47021;SDS011;32779;52.264;6.154;2022-09-09T11:53:36;9.57;;;1.70;;
47021;SDS011;32779;52.264;6.154;2022-09-09T11:56:24;7.15;;;1.75;;
47021;SDS011;32779;52.264;6.154;2022-09-09T11:58:57;5.63;;;1.58;;
47021;SDS011;32779;52.264;6.154;2022-09-09T12:01:27;7.30;;;2.00;;
47021;SDS011;32779;52.264;6.154;2022-09-09T12:06:57;4.30;;;1.67;;
47021;SDS011;32779;52.264;6.154;2022-09-09T12:12:22;8.30;;;1.90;;
47021;SDS011;32779;52.264;6.154;2022-09-09T12:17:25;8.38;;;1.83;;
47021;SDS011;32779;52.264;6.154;2022-09-09T12:20:11;9.20;;;1.63;;
47021;SDS011;32779;52.264;6.154;2022-09-09T12:33:13;2.75;;;1.00;;
47021;SDS011;32779;52.264;6.154;2022-09-09T12:35:42;8.55;;;1.35;;
47021;SDS011;32779;52.264;6.154;2022-09-09T12:38:19;4.97;;;1.20;;
47021;SDS011;32779;52.264;6.154;2022-09-09T12:40:57;4.82;;;1.20;;
47021;SDS011;32779;52.264;6.154;2022-09-09T12:43:24;9.77;;;1.58;;
47021;SDS011;32779;52.264;6.154;2022-09-09T12:45:51;3.75;;;0.93;;
47021;SDS011;32779;52.264;6.154;2022-09-09T12:48:24;2.45;;;1.20;;
47021;SDS011;32779;52.264;6.154;2022-09-09T12:50:59;2.85;;;1.10;;
47021;SDS011;32779;52.264;6.154;2022-09-09T12:53:32;3.08;;;1.20;;
47021;SDS011;32779;52.264;6.154;2022-09-09T12:56:03;5.38;;;1.35;;
47021;SDS011;32779;52.264;6.154;2022-09-09T12:58:33;2.75;;;1.17;;
47021;SDS011;32779;52.264;6.154;2022-09-09T13:01:01;7.82;;;1.27;;
47021;SDS011;32779;52.264;6.154;2022-09-09T13:03:30;4.78;;;1.17;;
47021;SDS011;32779;52.264;6.154;2022-09-09T13:05:58;5.65;;;1.45;;
47021;SDS011;32779;52.264;6.154;2022-09-09T13:08:36;3.97;;;1.27;;
47021;SDS011;32779;52.264;6.154;2022-09-09T13:11:03;8.27;;;1.40;;
47021;SDS011;32779;52.264;6.154;2022-09-09T13:13:39;5.30;;;1.40;;
47021;SDS011;32779;52.264;6.154;2022-09-09T13:16:06;4.82;;;1.35;;
47021;SDS011;32779;52.264;6.154;2022-09-09T13:18:43;3.80;;;1.45;;
47021;SDS011;32779;52.264;6.154;2022-09-09T13:23:35;3.85;;;1.15;;
47021;SDS011;32779;52.264;6.154;2022-09-09T13:26:03;4.68;;;1.10;;
47021;SDS011;32779;52.264;6.154;2022-09-09T13:28:32;4.32;;;1.40;;
47021;SDS011;32779;52.264;6.154;2022-09-09T13:31:04;2.03;;;0.90;;
47021;SDS011;32779;52.264;6.154;2022-09-09T13:33:37;3.03;;;1.00;;
47021;SDS011;32779;52.264;6.154;2022-09-09T13:38:37;3.03;;;1.23;;
47021;SDS011;32779;52.264;6.154;2022-09-09T13:41:36;3.28;;;1.00;;
47021;SDS011;32779;52.264;6.154;2022-09-09T13:44:17;3.75;;;1.30;;
47021;SDS011;32779;52.264;6.154;2022-09-09T13:46:47;2.53;;;1.17;;
47021;SDS011;32779;52.264;6.154;2022-09-09T13:49:24;8.80;;;1.10;;
47021;SDS011;32779;52.264;6.154;2022-09-09T13:52:02;4.72;;;1.40;;
47021;SDS011;32779;52.264;6.154;2022-09-09T13:54:32;2.78;;;1.10;;
47021;SDS011;32779;52.264;6.154;2022-09-09T13:56:58;2.78;;;1.10;;
47021;SDS011;32779;52.264;6.154;2022-09-09T13:59:24;4.20;;;1.15;;
47021;SDS011;32779;52.264;6.154;2022-09-09T14:01:50;5.13;;;1.50;;
47021;SDS011;32779;52.264;6.154;2022-09-09T14:04:17;7.53;;;1.30;;
47021;SDS011;32779;52.264;6.154;2022-09-09T14:06:45;3.85;;;1.40;;
47021;SDS011;32779;52.264;6.154;2022-09-09T14:09:13;5.70;;;1.60;;
47021;SDS011;32779;52.264;6.154;2022-09-09T14:11:41;4.30;;;1.30;;
47021;SDS011;32779;52.264;6.154;2022-09-09T14:14:06;3.88;;;1.40;;
47021;SDS011;32779;52.264;6.154;2022-09-09T14:16:33;4.90;;;1.55;;
47021;SDS011;32779;52.264;6.154;2022-09-09T14:18:59;7.20;;;2.28;;
47021;SDS011;32779;52.264;6.154;2022-09-09T14:21:25;3.78;;;1.48;;
47021;SDS011;32779;52.264;6.154;2022-09-09T14:23:51;5.47;;;1.25;;
47021;SDS011;32779;52.264;6.154;2022-09-09T14:26:22;3.92;;;1.35;;
47021;SDS011;32779;52.264;6.154;2022-09-09T14:28:48;5.75;;;1.67;;
47021;SDS011;32779;52.264;6.154;2022-09-09T14:31:15;4.45;;;1.40;;
47021;SDS011;32779;52.264;6.154;2022-09-09T14:33:42;4.20;;;1.70;;
47021;SDS011;32779;52.264;6.154;2022-09-09T14:36:08;4.65;;;1.42;;
47021;SDS011;32779;52.264;6.154;2022-09-09T14:38:35;6.68;;;1.58;;
47021;SDS011;32779;52.264;6.154;2022-09-09T14:41:05;4.95;;;1.90;;
47021;SDS011;32779;52.264;6.154;2022-09-09T14:43:31;8.00;;;2.00;;
47021;SDS011;32779;52.264;6.154;2022-09-09T14:45:57;6.93;;;1.73;;
47021;SDS011;32779;52.264;6.154;2022-09-09T14:48:30;8.90;;;1.65;;
47021;SDS011;32779;52.264;6.154;2022-09-09T14:53:21;4.75;;;1.77;;
47021;SDS011;32779;52.264;6.154;2022-09-09T14:55:47;4.40;;;1.55;;
47021;SDS011;32779;52.264;6.154;2022-09-09T14:58:13;8.10;;;1.40;;
47021;SDS011;32779;52.264;6.154;2022-09-09T15:00:38;5.63;;;1.60;;
47021;SDS011;32779;52.264;6.154;2022-09-09T15:03:04;9.13;;;1.90;;
47021;SDS011;32779;52.264;6.154;2022-09-09T15:05:30;6.18;;;2.00;;
47021;SDS011;32779;52.264;6.154;2022-09-09T15:07:56;4.78;;;1.60;;
47021;SDS011;32779;52.264;6.154;2022-09-09T15:10:23;5.95;;;1.80;;
47021;SDS011;32779;52.264;6.154;2022-09-09T15:15:14;8.25;;;1.98;;
47021;SDS011;32779;52.264;6.154;2022-09-09T15:20:05;3.65;;;1.60;;
47021;SDS011;32779;52.264;6.154;2022-09-09T15:22:32;6.60;;;1.83;;
47021;SDS011;32779;52.264;6.154;2022-09-09T15:24:58;4.82;;;1.70;;
47021;SDS011;32779;52.264;6.154;2022-09-09T15:29:49;6.95;;;1.90;;
47021;SDS011;32779;52.264;6.154;2022-09-09T15:32:16;4.93;;;1.75;;
47021;SDS011;32779;52.264;6.154;2022-09-09T15:37:09;4.28;;;1.75;;
47021;SDS011;32779;52.264;6.154;2022-09-09T15:39:37;7.75;;;2.10;;
47021;SDS011;32779;52.264;6.154;2022-09-09T15:44:29;9.55;;;1.92;;
47021;SDS011;32779;52.264;6.154;2022-09-09T15:46:55;9.52;;;1.55;;
47021;SDS011;32779;52.264;6.154;2022-09-09T15:49:24;5.45;;;1.85;;
47021;SDS011;32779;52.264;6.154;2022-09-09T15:54:21;5.85;;;1.98;;
47021;SDS011;32779;52.264;6.154;2022-09-09T15:56:56;5.82;;;2.17;;
47021;SDS011;32779;52.264;6.154;2022-09-09T15:59:26;7.53;;;1.80;;
47021;SDS011;32779;52.264;6.154;2022-09-09T16:01:53;6.68;;;1.80;;
47021;SDS011;32779;52.264;6.154;2022-09-09T16:04:20;5.22;;;1.63;;
47021;SDS011;32779;52.264;6.154;2022-09-09T16:09:40;8.35;;;2.20;;
47021;SDS011;32779;52.264;6.154;2022-09-09T16:12:08;5.30;;;2.00;;
47021;SDS011;32779;52.264;6.154;2022-09-09T16:14:38;8.85;;;2.20;;
47021;SDS011;32779;52.264;6.154;2022-09-09T16:19:30;7.70;;;2.20;;
47021;SDS011;32779;52.264;6.154;2022-09-09T16:21:56;5.95;;;2.10;;
47021;SDS011;32779;52.264;6.154;2022-09-09T16:26:50;10.30;;;2.90;;
47021;SDS011;32779;52.264;6.154;2022-09-09T16:29:17;6.60;;;1.85;;
47021;SDS011;32779;52.264;6.154;2022-09-09T16:31:44;9.23;;;2.08;;
47021;SDS011;32779;52.264;6.154;2022-09-09T16:34:11;8.00;;;2.05;;
47021;SDS011;32779;52.264;6.154;2022-09-09T16:39:05;7.97;;;2.00;;
47021;SDS011;32779;52.264;6.154;2022-09-09T16:41:42;7.25;;;2.00;;
47021;SDS011;32779;52.264;6.154;2022-09-09T16:44:10;9.35;;;2.42;;
47021;SDS011;32779;52.264;6.154;2022-09-09T16:46:37;6.30;;;2.28;;
47021;SDS011;32779;52.264;6.154;2022-09-09T16:49:06;8.52;;;2.10;;
47021;SDS011;32779;52.264;6.154;2022-09-09T16:51:37;6.25;;;1.98;;
47021;SDS011;32779;52.264;6.154;2022-09-09T16:54:05;5.45;;;2.20;;
47021;SDS011;32779;52.264;6.154;2022-09-09T16:56:32;7.65;;;2.33;;
47021;SDS011;32779;52.264;6.154;2022-09-09T16:59:00;8.88;;;2.72;;
47021;SDS011;32779;52.264;6.154;2022-09-09T17:01:28;5.13;;;1.95;;
47021;SDS011;32779;52.264;6.154;2022-09-09T17:03:58;7.07;;;2.28;;
47021;SDS011;32779;52.264;6.154;2022-09-09T17:06:26;8.43;;;2.15;;
47021;SDS011;32779;52.264;6.154;2022-09-09T17:08:56;5.70;;;2.00;;
47021;SDS011;32779;52.264;6.154;2022-09-09T17:11:23;6.45;;;1.92;;
47021;SDS011;32779;52.264;6.154;2022-09-09T17:13:49;5.20;;;2.15;;
47021;SDS011;32779;52.264;6.154;2022-09-09T17:16:16;9.45;;;2.15;;
47021;SDS011;32779;52.264;6.154;2022-09-09T17:18:45;8.02;;;2.00;;
47021;SDS011;32779;52.264;6.154;2022-09-09T17:23:38;5.63;;;1.80;;
47021;SDS011;32779;52.264;6.154;2022-09-09T17:26:06;5.70;;;2.25;;
47021;SDS011;32779;52.264;6.154;2022-09-09T17:28:33;3.05;;;1.50;;
47021;SDS011;32779;52.264;6.154;2022-09-09T17:31:00;5.75;;;1.95;;
47021;SDS011;32779;52.264;6.154;2022-09-09T17:33:28;4.70;;;1.50;;
47021;SDS011;32779;52.264;6.154;2022-09-09T17:35:56;3.53;;;1.60;;
47021;SDS011;32779;52.264;6.154;2022-09-09T17:38:26;7.45;;;1.67;;
47021;SDS011;32779;52.264;6.154;2022-09-09T17:41:02;5.05;;;1.75;;
47021;SDS011;32779;52.264;6.154;2022-09-09T17:43:36;5.25;;;1.70;;
47021;SDS011;32779;52.264;6.154;2022-09-09T17:46:06;3.08;;;1.50;;
47021;SDS011;32779;52.264;6.154;2022-09-09T17:48:32;3.25;;;1.42;;
47021;SDS011;32779;52.264;6.154;2022-09-09T17:53:23;4.20;;;1.63;;
47021;SDS011;32779;52.264;6.154;2022-09-09T17:55:50;5.63;;;2.00;;
47021;SDS011;32779;52.264;6.154;2022-09-09T18:00:41;2.90;;;1.60;;
47021;SDS011;32779;52.264;6.154;2022-09-09T18:05:33;6.85;;;2.10;;
47021;SDS011;32779;52.264;6.154;2022-09-09T18:10:24;4.07;;;1.63;;
47021;SDS011;32779;52.264;6.154;2022-09-09T18:15:15;2.13;;;1.30;;
47021;SDS011;32779;52.264;6.154;2022-09-09T18:17:40;3.45;;;1.30;;
47021;SDS011;32779;52.264;6.154;2022-09-09T18:22:32;2.60;;;1.00;;
47021;SDS011;32779;52.264;6.154;2022-09-09T18:24:58;1.92;;;1.00;;
47021;SDS011;32779;52.264;6.154;2022-09-09T18:29:49;2.80;;;1.63;;
47021;SDS011;32779;52.264;6.154;2022-09-09T18:34:41;2.35;;;1.33;;
47021;SDS011;32779;52.264;6.154;2022-09-09T18:39:32;6.25;;;2.08;;
47021;SDS011;32779;52.264;6.154;2022-09-09T18:44:25;3.88;;;1.75;;
47021;SDS011;32779;52.264;6.154;2022-09-09T18:46:53;3.28;;;1.92;;
47021;SDS011;32779;52.264;6.154;2022-09-09T18:49:19;2.28;;;1.80;;
47021;SDS011;32779;52.264;6.154;2022-09-09T18:51:46;6.55;;;2.22;;
47021;SDS011;32779;52.264;6.154;2022-09-09T18:54:13;4.20;;;1.75;;
47021;SDS011;32779;52.264;6.154;2022-09-09T18:56:50;4.72;;;2.22;;
47021;SDS011;32779;52.264;6.154;2022-09-09T18:59:17;5.18;;;2.42;;
47021;SDS011;32779;52.264;6.154;2022-09-09T19:01:46;6.00;;;2.30;;
47021;SDS011;32779;52.264;6.154;2022-09-09T19:04:12;2.47;;;2.28;;
47021;SDS011;32779;52.264;6.154;2022-09-09T19:06:40;4.57;;;2.33;;
47021;SDS011;32779;52.264;6.154;2022-09-09T19:09:10;3.33;;;2.67;;
47021;SDS011;32779;52.264;6.154;2022-09-09T19:11:37;6.80;;;2.90;;
47021;SDS011;32779;52.264;6.154;2022-09-09T19:14:04;4.75;;;3.05;;
47021;SDS011;32779;52.264;6.154;2022-09-09T19:16:32;3.58;;;3.00;;
47021;SDS011;32779;52.264;6.154;2022-09-09T19:18:59;4.00;;;2.90;;
47021;SDS011;32779;52.264;6.154;2022-09-09T19:21:28;6.88;;;3.28;;
47021;SDS011;32779;52.264;6.154;2022-09-09T19:23:59;6.47;;;3.00;;
47021;SDS011;32779;52.264;6.154;2022-09-09T19:26:48;7.18;;;3.67;;
47021;SDS011;32779;52.264;6.154;2022-09-09T19:29:17;7.60;;;3.88;;
47021;SDS011;32779;52.264;6.154;2022-09-09T19:31:45;5.68;;;3.50;;
47021;SDS011;32779;52.264;6.154;2022-09-09T19:34:11;10.02;;;3.97;;
47021;SDS011;32779;52.264;6.154;2022-09-09T19:36:38;4.63;;;3.35;;
47021;SDS011;32779;52.264;6.154;2022-09-09T19:39:05;7.07;;;3.85;;
47021;SDS011;32779;52.264;6.154;2022-09-09T19:41:32;7.57;;;3.45;;
47021;SDS011;32779;52.264;6.154;2022-09-09T19:43:59;6.07;;;3.55;;
47021;SDS011;32779;52.264;6.154;2022-09-09T19:46:27;7.43;;;3.55;;